Red Rock, Nevada
Current Conditions -  °F | °C
As of 12:15 PM on Friday 31 Oct 2014 (Local Time) from KRTS Reporting Station
Clear Clear  
Wind Chill: 64°   Ceiling: Unl
Heat Index: 64°   Visibility: 10mi
Dew Point: 27°   Wind: 15mph
Humidity: 24%   Direction: 230°SW
Pressure: 29.82"   Gusts: 20mph
Location:  39.7378°N, 119.889°W
Report Text: KRTS 311915Z AUTO 23013G17KT 10SM CLR 18/M03 A2982 RMK AO2
Loading
Personal Weather Stations






























Interactive Weather Map
Tropical Storm Tracking
New forecast layout! Learn more

10-Day Weather Forecast

Advertisements
Track Severe Weather on mobile